createdAt,value
2019-03-23T09:42:45.599Z,25.67
2019-03-23T09:45:14.278Z,22.57
2019-03-23T09:47:41.739Z,25.63
2019-03-23T09:50:09.898Z,25.67
2019-03-23T09:52:37.130Z,27.20
2019-03-23T09:55:07.097Z,22.07
2019-03-23T09:57:34.150Z,23.87
2019-03-23T10:00:01.547Z,21.60
2019-03-23T10:02:28.666Z,21.10
2019-03-23T10:04:56.155Z,21.10
2019-03-23T10:07:23.316Z,21.77
2019-03-23T10:09:50.617Z,24.60
2019-03-23T10:12:17.894Z,21.40
2019-03-23T10:14:45.114Z,24.60
2019-03-23T10:17:12.274Z,21.47
2019-03-23T10:19:39.516Z,20.87
2019-03-23T10:22:06.776Z,20.03
2019-03-23T10:24:33.981Z,21.87
2019-03-23T10:27:01.135Z,19.50
2019-03-23T10:29:28.340Z,20.10
2019-03-23T10:31:55.844Z,19.17
2019-03-23T10:34:23.127Z,21.10
2019-03-23T10:36:50.355Z,21.03
2019-03-23T10:39:17.555Z,23.60
2019-03-23T10:41:45.035Z,19.50
2019-03-23T10:44:12.216Z,19.33
2019-03-23T10:46:39.556Z,20.97
2019-03-23T10:49:07.244Z,20.50
2019-03-23T10:51:34.446Z,20.20
2019-03-23T10:54:01.624Z,21.57
2019-03-23T10:56:29.483Z,20.50
2019-03-23T10:58:56.656Z,19.33
2019-03-23T11:01:23.875Z,23.57
2019-03-23T11:03:51.012Z,22.13
2019-03-23T11:06:18.483Z,22.53
2019-03-23T11:08:45.598Z,20.17
2019-03-23T11:11:12.842Z,22.17
2019-03-23T11:13:40.017Z,21.40
2019-03-23T11:16:08.137Z,20.77
2019-03-23T11:18:35.412Z,21.40
2019-03-23T11:21:03.050Z,23.67
2019-03-23T11:23:30.213Z,19.53
2019-03-23T11:25:57.490Z,21.17
2019-03-23T11:28:24.630Z,21.33
2019-03-23T11:30:51.850Z,20.73
2019-03-23T11:33:19.028Z,23.53
2019-03-23T11:35:46.278Z,19.77
2019-03-23T11:38:13.456Z,22.20
2019-03-23T11:40:40.593Z,22.37
2019-03-23T11:43:07.843Z,24.03
2019-03-23T11:45:35.083Z,22.93
2019-03-23T11:48:02.503Z,23.13
2019-03-23T11:50:29.571Z,22.43
2019-03-23T11:52:56.825Z,21.10
2019-03-23T11:55:24.080Z,22.43
2019-03-23T11:57:51.147Z,21.93
2019-03-23T12:00:18.519Z,24.57
2019-03-23T12:02:46.414Z,23.33
2019-03-23T12:05:13.985Z,24.43
2019-03-23T12:07:41.329Z,23.20
2019-03-23T12:10:12.816Z,22.23
2019-03-23T12:12:40.121Z,22.13
2019-03-23T12:15:11.358Z,20.70
2019-03-23T12:17:38.606Z,23.00
2019-03-23T12:20:07.014Z,21.33
2019-03-23T12:22:34.235Z,24.13
2019-03-23T12:25:01.345Z,21.97
2019-03-23T12:27:28.538Z,22.63
2019-03-23T12:29:55.655Z,21.93
2019-03-23T12:32:22.882Z,22.97
2019-03-23T12:34:50.381Z,22.27
2019-03-23T12:37:17.921Z,25.67
2019-03-23T12:39:45.320Z,23.20
2019-03-23T12:42:12.624Z,23.87
2019-03-23T12:44:39.821Z,25.27
2019-03-23T12:47:07.024Z,22.37
2019-03-23T12:49:34.187Z,23.60
2019-03-23T12:52:01.684Z,23.37
2019-03-23T12:54:28.997Z,24.33
2019-03-23T12:56:56.109Z,23.80
2019-03-23T12:59:23.290Z,22.67
2019-03-23T13:01:50.874Z,24.23
2019-03-23T13:04:18.051Z,24.37
2019-03-23T13:06:45.268Z,24.53
2019-03-23T13:09:12.490Z,26.37
2019-03-23T13:11:39.630Z,28.37
2019-03-23T13:14:07.070Z,26.43
2019-03-23T13:16:34.154Z,25.40
2019-03-23T13:19:01.289Z,27.37
2019-03-23T13:21:28.487Z,25.27
2019-03-23T13:23:55.670Z,29.53
2019-03-23T13:26:22.789Z,26.50
2019-03-23T13:28:49.987Z,27.33
2019-03-23T13:31:17.091Z,27.33
2019-03-23T13:33:44.387Z,26.33
2019-03-23T13:36:11.486Z,28.73
2019-03-23T13:38:38.702Z,27.13
2019-03-23T13:41:05.788Z,27.67
2019-03-23T13:43:32.877Z,28.00
2019-03-23T13:45:59.984Z,28.00
2019-03-23T13:48:27.153Z,27.30
2019-03-23T13:50:54.696Z,26.33
2019-03-23T13:53:23.896Z,28.73
2019-03-23T13:55:51.104Z,29.17
2019-03-23T13:58:18.236Z,28.47
2019-03-23T14:00:45.455Z,30.33
2019-03-23T14:03:13.462Z,30.80
2019-03-23T14:05:40.771Z,29.03
2019-03-23T14:08:08.050Z,30.90
2019-03-23T14:10:35.515Z,30.97
2019-03-23T14:13:02.755Z,30.23
2019-03-23T14:15:29.872Z,33.57
2019-03-23T14:17:57.081Z,30.97
2019-03-23T14:20:24.208Z,29.37
2019-03-23T14:22:51.390Z,31.67
2019-03-23T14:25:18.535Z,32.00
2019-03-23T14:27:45.708Z,31.77
2019-03-23T14:30:16.823Z,32.13
2019-03-23T14:32:44.132Z,32.43
2019-03-23T14:35:11.515Z,32.70
2019-03-23T14:37:38.738Z,34.83
2019-03-23T14:40:06.339Z,34.03
2019-03-23T14:42:34.794Z,32.43
2019-03-23T14:45:02.697Z,34.03
2019-03-23T14:47:30.179Z,32.83
2019-03-23T14:49:57.405Z,35.30
2019-03-23T14:52:24.574Z,34.27
2019-03-23T14:54:51.741Z,33.07
2019-03-23T14:57:18.927Z,34.73
2019-03-23T14:59:46.118Z,31.97
2019-03-23T15:02:13.436Z,33.90
2019-03-23T15:04:40.722Z,33.33
2019-03-23T15:07:08.037Z,35.03
2019-03-23T15:09:35.417Z,32.33
2019-03-23T15:12:03.320Z,36.27
2019-03-23T15:14:30.795Z,31.47
2019-03-23T15:16:57.982Z,35.73
2019-03-23T15:19:25.091Z,34.20
2019-03-23T15:21:52.270Z,35.67
2019-03-23T15:24:19.402Z,32.90
2019-03-23T15:26:46.540Z,33.83
2019-03-23T15:29:13.758Z,36.67
2019-03-23T15:31:40.963Z,32.23
2019-03-23T15:34:08.619Z,33.03
2019-03-23T15:36:35.835Z,36.07
2019-03-23T15:39:06.709Z,34.43
2019-03-23T15:41:33.909Z,32.93
2019-03-23T15:44:01.096Z,33.57
2019-03-23T15:46:28.222Z,33.63
2019-03-23T15:48:55.402Z,31.77
2019-03-23T15:51:22.549Z,35.17
2019-03-23T15:53:49.653Z,37.40
2019-03-23T15:56:16.856Z,34.27
2019-03-23T15:58:43.974Z,33.37
2019-03-23T16:01:11.258Z,32.80
2019-03-23T16:03:38.730Z,35.43
2019-03-23T16:06:05.964Z,35.90
2019-03-23T16:08:33.182Z,36.73
2019-03-23T16:11:20.047Z,33.83
2019-03-23T16:13:47.261Z,34.33
2019-03-23T16:16:14.321Z,37.47
2019-03-23T16:18:41.506Z,34.13
2019-03-23T16:21:08.682Z,35.97
2019-03-23T16:23:35.898Z,36.03
2019-03-23T16:26:03.184Z,35.33
2019-03-23T16:28:30.497Z,33.80
2019-03-23T16:30:57.850Z,33.30
2019-03-23T16:33:25.095Z,35.73
2019-03-23T16:35:52.205Z,34.23
2019-03-23T16:38:19.386Z,36.87
2019-03-23T16:40:46.527Z,39.33
2019-03-23T16:43:13.802Z,34.00
2019-03-23T16:45:40.978Z,33.97
2019-03-23T16:48:08.116Z,34.93
2019-03-23T16:50:35.341Z,34.30
2019-03-23T16:53:02.500Z,39.17
2019-03-23T16:55:29.629Z,35.40
2019-03-23T16:57:56.852Z,36.60
2019-03-23T17:00:35.684Z,33.17
2019-03-23T17:03:03.673Z,36.73
2019-03-23T17:05:30.792Z,36.37
2019-03-23T17:07:57.973Z,37.97
2019-03-23T17:10:25.092Z,36.03
2019-03-23T17:12:55.476Z,36.53
2019-03-23T17:15:21.350Z,36.80
2019-03-23T17:17:48.752Z,36.27
2019-03-23T17:20:15.906Z,37.63
2019-03-23T17:22:43.112Z,37.43
2019-03-23T17:25:10.393Z,36.00
2019-03-23T17:27:37.542Z,36.37
2019-03-23T17:32:34.255Z,43.57
2019-03-23T17:35:01.417Z,38.50
2019-03-23T17:37:28.588Z,35.70
2019-03-23T17:39:56.178Z,49.53
2019-03-23T17:42:23.281Z,35.10
2019-03-23T17:44:50.659Z,37.63
2019-03-23T17:47:17.795Z,39.63
2019-03-23T17:49:44.976Z,42.73
2019-03-23T17:52:12.056Z,42.57
2019-03-23T17:54:39.236Z,43.43
2019-03-23T17:57:06.343Z,39.00
2019-03-23T17:59:33.504Z,41.37
2019-03-23T18:02:00.618Z,37.13
2019-03-23T18:04:28.016Z,42.53
2019-03-23T18:06:55.100Z,38.73
2019-03-23T18:09:22.218Z,38.77
2019-03-23T18:11:49.401Z,38.67
2019-03-23T18:14:16.663Z,36.50
2019-03-23T18:16:43.814Z,40.40
2019-03-23T18:21:37.803Z,39.20
2019-03-23T18:24:04.995Z,38.13
2019-03-23T18:26:32.223Z,40.87
2019-03-23T18:28:59.335Z,41.53
2019-03-23T18:31:26.575Z,40.43
2019-03-23T18:33:53.715Z,36.73
2019-03-23T18:36:20.935Z,38.47
2019-03-23T18:38:48.102Z,39.37
2019-03-23T18:41:15.249Z,39.33
2019-03-23T18:43:42.397Z,40.57
2019-03-23T18:46:09.624Z,40.23
2019-03-23T18:48:36.767Z,38.97
2019-03-23T18:51:03.959Z,38.27
2019-03-23T18:53:31.129Z,39.57
2019-03-23T18:55:58.652Z,37.73
2019-03-23T18:58:25.749Z,39.13
2019-03-23T19:00:53.025Z,42.17
2019-03-23T19:03:20.164Z,41.97
2019-03-23T19:08:15.740Z,43.43
2019-03-23T19:10:43.131Z,47.83
2019-03-23T19:13:10.364Z,52.70
2019-03-23T19:15:37.584Z,47.87
2019-03-23T19:18:05.804Z,46.33
2019-03-23T19:20:33.984Z,43.97
2019-03-23T19:23:01.083Z,44.10
2019-03-23T19:25:28.144Z,41.87
2019-03-23T19:27:55.324Z,47.23
2019-03-23T19:30:22.667Z,45.83
2019-03-23T19:32:49.802Z,47.20
2019-03-23T19:35:17.014Z,42.93
2019-03-23T19:37:44.167Z,47.17
2019-03-23T19:40:11.612Z,43.80
2019-03-23T19:42:38.791Z,45.07
2019-03-23T19:45:06.570Z,44.13
2019-03-23T19:47:33.766Z,48.10
2019-03-23T19:50:00.925Z,47.67
2019-03-23T19:52:28.124Z,45.00
2019-03-23T19:54:55.265Z,45.17
2019-03-23T19:57:22.528Z,45.97
2019-03-23T19:59:49.625Z,47.50
2019-03-23T20:02:16.727Z,50.90
2019-03-23T20:04:43.822Z,52.73
2019-03-23T20:07:11.011Z,48.57
2019-03-23T20:09:38.082Z,47.20
2019-03-23T20:14:52.418Z,44.93
2019-03-23T20:17:19.698Z,49.90
2019-03-23T20:19:47.019Z,50.17
2019-03-23T20:22:14.145Z,45.90
2019-03-23T20:24:41.286Z,51.03
2019-03-23T20:27:08.507Z,52.90
2019-03-23T20:29:35.639Z,55.60
2019-03-23T20:32:02.900Z,52.33
2019-03-23T20:34:29.980Z,53.83
2019-03-23T20:36:57.149Z,50.60
2019-03-23T20:39:24.287Z,55.47
2019-03-23T20:41:51.404Z,53.53
2019-03-23T20:44:18.559Z,54.37
2019-03-23T20:46:45.713Z,54.17
2019-03-23T20:49:13.303Z,51.90
2019-03-23T20:51:40.960Z,53.73
2019-03-23T20:54:08.156Z,53.97
2019-03-23T20:56:35.301Z,54.50
2019-03-23T20:59:02.518Z,56.20
2019-03-23T21:01:29.819Z,57.90
2019-03-23T21:03:57.019Z,58.93
2019-03-23T21:06:24.234Z,56.37
2019-03-23T21:08:51.438Z,58.73
2019-03-23T21:11:18.539Z,60.53
2019-03-23T21:13:45.759Z,62.87
2019-03-23T21:16:13.603Z,56.27
2019-03-23T21:18:40.818Z,55.13
2019-03-23T21:21:08.138Z,59.37
2019-03-23T21:23:35.378Z,58.13
2019-03-23T21:26:02.900Z,55.73
2019-03-23T21:28:30.532Z,56.30
2019-03-23T21:30:58.000Z,57.97
2019-03-23T21:33:31.759Z,60.13
2019-03-23T21:35:54.318Z,57.70
2019-03-23T21:38:21.510Z,59.87
2019-03-23T21:40:48.685Z,59.60
2019-03-23T21:43:16.558Z,61.10
2019-03-23T21:45:43.756Z,58.10
2019-03-23T21:48:10.862Z,53.33
2019-03-23T21:50:47.025Z,58.30
2019-03-23T21:53:07.121Z,59.83
2019-03-23T21:55:34.362Z,62.40
2019-03-23T21:58:01.746Z,65.03
2019-03-23T22:00:31.824Z,58.03
2019-03-23T22:02:59.543Z,58.17
2019-03-23T22:05:51.703Z,62.03
2019-03-23T22:08:18.841Z,57.93
2019-03-23T22:10:46.460Z,59.77
2019-03-23T22:13:13.622Z,60.57
2019-03-23T22:15:40.848Z,58.87
2019-03-23T22:18:08.361Z,63.73
2019-03-23T22:20:35.603Z,65.93
2019-03-23T22:23:02.731Z,50.03
2019-03-23T22:25:29.961Z,57.47
2019-03-23T22:27:57.135Z,64.90
2019-03-23T22:30:24.343Z,57.10
2019-03-23T22:32:51.467Z,61.47
2019-03-23T22:35:18.642Z,57.50
2019-03-23T22:37:45.761Z,70.27
2019-03-23T22:40:13.124Z,68.07
2019-03-23T22:42:40.301Z,64.93
2019-03-23T22:45:08.204Z,67.43
2019-03-23T22:47:35.561Z,70.27
2019-03-23T22:50:07.222Z,75.77
2019-03-23T22:52:34.521Z,61.33
2019-03-23T22:55:01.841Z,65.97
2019-03-23T22:57:29.289Z,67.37
2019-03-23T22:59:56.461Z,68.90
2019-03-23T23:02:23.621Z,62.30
2019-03-23T23:04:51.281Z,69.57
2019-03-23T23:07:18.481Z,63.70
2019-03-23T23:10:06.702Z,63.53
2019-03-23T23:12:34.262Z,62.77
2019-03-23T23:15:04.767Z,65.43
2019-03-23T23:17:30.682Z,70.30
2019-03-23T23:19:57.862Z,66.73
2019-03-23T23:22:25.101Z,68.83
2019-03-23T23:24:52.261Z,67.03
2019-03-23T23:27:19.501Z,67.37
2019-03-23T23:29:47.002Z,71.30
2019-03-23T23:32:14.166Z,71.57
2019-03-23T23:34:41.240Z,66.07
2019-03-23T23:37:08.461Z,69.90
2019-03-23T23:39:35.601Z,74.07
2019-03-23T23:42:02.722Z,78.13
2019-03-23T23:44:29.841Z,72.23
2019-03-23T23:46:57.042Z,64.37
2019-03-23T23:49:24.261Z,62.57
2019-03-23T23:51:51.418Z,65.83
2019-03-23T23:54:18.581Z,64.47
2019-03-23T23:56:45.907Z,71.90
2019-03-23T23:59:13.161Z,67.87
